createdAt,value
2023-09-04T00:02:16.284Z,3.58
2023-09-04T00:05:01.869Z,3.53
2023-09-04T00:07:47.865Z,3.38
2023-09-04T00:10:33.593Z,3.30
2023-09-04T00:13:19.279Z,3.53
2023-09-04T00:16:05.401Z,3.20
2023-09-04T00:18:51.660Z,3.72
2023-09-04T00:21:37.663Z,3.70
2023-09-04T00:24:25.088Z,3.30
2023-09-04T00:27:10.897Z,3.40
2023-09-04T00:29:57.079Z,4.22
2023-09-04T00:32:42.901Z,3.20
2023-09-04T00:35:30.079Z,3.40
2023-09-04T00:38:16.053Z,3.67
2023-09-04T00:41:01.940Z,3.85
2023-09-04T00:43:47.979Z,3.83
2023-09-04T00:46:33.597Z,4.05
2023-09-04T00:49:19.494Z,3.42
2023-09-04T00:52:06.485Z,3.70
2023-09-04T00:54:53.039Z,4.00
2023-09-04T00:57:42.891Z,3.42
2023-09-04T01:00:29.236Z,3.60
2023-09-04T01:03:15.932Z,3.90
2023-09-04T01:06:03.002Z,3.80
2023-09-04T01:08:48.902Z,4.18
2023-09-04T01:11:49.103Z,4.03
2023-09-04T01:14:36.666Z,4.05
2023-09-04T01:17:22.513Z,3.00
2023-09-04T01:20:29.860Z,3.92
2023-09-04T01:23:15.960Z,3.83
2023-09-04T01:26:10.634Z,3.60
2023-09-04T01:29:12.013Z,4.00
2023-09-04T01:32:00.701Z,3.30
2023-09-04T01:34:50.313Z,3.90
2023-09-04T01:37:37.415Z,3.72
2023-09-04T01:40:24.098Z,3.55
2023-09-04T01:43:10.654Z,3.38
2023-09-04T01:45:56.465Z,3.70
2023-09-04T01:48:42.278Z,3.78
2023-09-04T01:51:28.091Z,3.97
2023-09-04T01:54:14.270Z,3.83
2023-09-04T01:56:59.908Z,3.90
2023-09-04T01:59:46.150Z,4.13
2023-09-04T02:02:32.015Z,4.18
2023-09-04T02:05:17.736Z,4.10
2023-09-04T02:08:03.587Z,4.47
2023-09-04T02:10:50.508Z,4.15
2023-09-04T02:13:36.351Z,4.18
2023-09-04T02:16:23.715Z,3.95
2023-09-04T02:19:10.316Z,4.93
2023-09-04T02:21:56.270Z,6.15
2023-09-04T02:24:44.556Z,6.65
2023-09-04T02:27:30.534Z,6.18
2023-09-04T02:30:16.457Z,7.13
2023-09-04T02:33:02.617Z,7.22
2023-09-04T02:35:48.185Z,6.40
2023-09-04T02:38:34.199Z,6.22
2023-09-04T02:41:20.359Z,6.60
2023-09-04T02:44:06.277Z,6.22
2023-09-04T02:46:51.967Z,6.60
2023-09-04T02:49:37.692Z,7.25
2023-09-04T02:52:23.318Z,6.63
2023-09-04T02:55:09.478Z,7.60
2023-09-04T02:57:55.123Z,5.55
2023-09-04T03:00:44.761Z,5.30
2023-09-04T03:03:30.495Z,4.95
2023-09-04T03:06:16.162Z,4.78
2023-09-04T03:09:01.894Z,4.72
2023-09-04T03:11:47.632Z,5.10
2023-09-04T03:14:33.293Z,4.88
2023-09-04T03:17:19.156Z,4.95
2023-09-04T03:20:10.733Z,5.70
2023-09-04T03:22:57.098Z,5.07
2023-09-04T03:25:42.783Z,5.07
2023-09-04T03:28:29.728Z,4.72
2023-09-04T03:31:16.452Z,5.20
2023-09-04T03:34:03.199Z,5.22
2023-09-04T03:36:49.790Z,4.82
2023-09-04T03:39:40.325Z,5.18
2023-09-04T03:42:26.164Z,4.80
2023-09-04T03:45:14.046Z,5.18
2023-09-04T03:48:00.049Z,4.75
2023-09-04T03:50:45.901Z,5.07
2023-09-04T03:53:31.704Z,4.95
2023-09-04T03:56:17.416Z,4.72
2023-09-04T03:59:03.490Z,4.63
2023-09-04T04:01:49.289Z,4.82
2023-09-04T04:04:35.190Z,4.95
2023-09-04T04:07:21.428Z,4.35
2023-09-04T04:10:08.006Z,4.97
2023-09-04T04:12:54.491Z,4.25
2023-09-04T04:15:40.598Z,4.63
2023-09-04T04:18:28.520Z,4.45
2023-09-04T04:21:14.171Z,4.50
2023-09-04T04:24:00.201Z,4.65
2023-09-04T04:26:47.112Z,4.22
2023-09-04T04:29:32.627Z,4.18
2023-09-04T04:32:18.364Z,4.57
2023-09-04T04:35:04.795Z,4.65
2023-09-04T04:37:50.692Z,4.30
2023-09-04T04:40:40.073Z,4.40
2023-09-04T04:43:26.200Z,4.65
2023-09-04T04:46:14.091Z,4.70
2023-09-04T04:49:00.105Z,4.07
2023-09-04T04:51:46.047Z,4.45
2023-09-04T04:54:31.703Z,4.43
2023-09-04T04:57:17.387Z,4.57
2023-09-04T05:00:08.445Z,4.22
2023-09-04T05:02:54.803Z,4.40
2023-09-04T05:05:48.730Z,4.57
2023-09-04T05:08:34.923Z,4.78
2023-09-04T05:11:20.970Z,4.35
2023-09-04T05:14:07.656Z,4.35
2023-09-04T05:16:53.333Z,5.00
2023-09-04T05:19:39.293Z,4.60
2023-09-04T05:22:25.038Z,4.97
2023-09-04T05:25:12.557Z,4.55
2023-09-04T05:27:58.268Z,4.25
2023-09-04T05:30:43.901Z,4.32
2023-09-04T05:33:29.550Z,4.20
2023-09-04T05:36:15.207Z,5.63
2023-09-04T05:39:01.862Z,6.07
2023-09-04T05:41:49.078Z,4.68
2023-09-04T05:44:35.042Z,4.80
2023-09-04T05:47:20.639Z,5.00
2023-09-04T05:50:07.142Z,4.60
2023-09-04T05:52:54.442Z,4.75
2023-09-04T05:55:43.557Z,5.70
2023-09-04T05:58:29.387Z,7.18
2023-09-04T06:01:16.239Z,9.52
2023-09-04T06:04:01.983Z,9.93
2023-09-04T06:06:47.856Z,9.85
2023-09-04T06:09:33.976Z,9.02
2023-09-04T06:12:20.011Z,11.50
2023-09-04T06:15:06.273Z,11.00
2023-09-04T06:17:52.399Z,12.90
2023-09-04T06:20:38.448Z,12.93
2023-09-04T06:23:24.722Z,14.10
2023-09-04T06:26:10.676Z,14.82
2023-09-04T06:28:56.649Z,16.42
2023-09-04T06:31:42.208Z,15.27
2023-09-04T06:34:30.033Z,15.00
2023-09-04T06:37:15.809Z,16.27
2023-09-04T06:40:01.740Z,16.05
2023-09-04T06:42:47.915Z,15.65
2023-09-04T06:45:33.945Z,14.20
2023-09-04T06:48:19.952Z,16.65
2023-09-04T06:51:06.024Z,14.73
2023-09-04T06:53:53.600Z,18.17
2023-09-04T06:56:39.438Z,16.55
2023-09-04T06:59:25.950Z,18.45
2023-09-04T07:02:11.741Z,18.20
2023-09-04T07:04:57.699Z,19.02
2023-09-04T07:07:43.992Z,19.67
2023-09-04T07:10:29.667Z,17.90
2023-09-04T07:13:16.451Z,20.08
2023-09-04T07:16:03.878Z,21.90
2023-09-04T07:18:49.649Z,21.65
2023-09-04T07:21:37.478Z,18.38
2023-09-04T07:24:26.284Z,18.20
2023-09-04T07:27:12.975Z,19.52
2023-09-04T07:29:59.869Z,16.85
2023-09-04T07:32:45.754Z,18.45
2023-09-04T07:35:31.671Z,19.17
2023-09-04T07:38:17.761Z,18.38
2023-09-04T07:41:05.138Z,19.80
2023-09-04T07:43:50.660Z,21.30
2023-09-04T07:46:36.502Z,23.70
2023-09-04T07:49:22.531Z,24.05
2023-09-04T07:52:08.322Z,23.02
2023-09-04T07:54:54.429Z,26.02
2023-09-04T07:57:40.408Z,26.95
2023-09-04T08:00:27.176Z,24.35
2023-09-04T08:03:13.483Z,23.75
2023-09-04T08:05:59.021Z,26.80
2023-09-04T08:08:44.990Z,27.42
2023-09-04T08:11:31.538Z,27.77
2023-09-04T08:14:17.352Z,27.98
2023-09-04T08:17:04.877Z,28.25
2023-09-04T08:19:50.927Z,27.65
2023-09-04T08:22:36.815Z,28.77
2023-09-04T08:25:22.824Z,26.92
2023-09-04T08:28:08.908Z,30.05
2023-09-04T08:30:55.245Z,28.92
2023-09-04T08:33:41.256Z,28.60
2023-09-04T08:36:26.961Z,29.75
2023-09-04T08:39:13.288Z,26.63
2023-09-04T08:41:59.663Z,26.50
2023-09-04T08:44:46.257Z,23.45
2023-09-04T08:47:33.050Z,20.02
2023-09-04T08:50:21.562Z,24.48
2023-09-04T08:53:07.723Z,27.27
2023-09-04T08:55:55.358Z,26.17
2023-09-04T08:58:42.280Z,27.52
2023-09-04T09:01:34.619Z,27.88
2023-09-04T09:04:24.097Z,25.27
2023-09-04T09:07:11.909Z,24.10
2023-09-04T09:10:05.788Z,27.70
2023-09-04T09:12:51.708Z,23.25
2023-09-04T09:15:37.791Z,26.13
2023-09-04T09:18:43.575Z,25.85
2023-09-04T09:21:31.491Z,23.92
2023-09-04T09:24:18.744Z,25.25
2023-09-04T09:27:04.694Z,24.75
2023-09-04T09:29:51.112Z,25.10
2023-09-04T09:32:37.314Z,23.70
2023-09-04T09:35:23.109Z,23.98
2023-09-04T09:38:09.689Z,26.25
2023-09-04T09:40:56.645Z,23.50
2023-09-04T09:43:43.085Z,28.25
2023-09-04T09:46:30.198Z,22.52
2023-09-04T09:49:17.949Z,23.58
2023-09-04T09:52:06.587Z,18.98
2023-09-04T09:54:52.893Z,25.85
2023-09-04T09:57:38.979Z,16.38
2023-09-04T10:00:25.542Z,20.73
2023-09-04T10:03:11.996Z,19.88
2023-09-04T10:06:03.469Z,23.63
2023-09-04T10:08:52.041Z,24.63
2023-09-04T10:11:41.311Z,23.15
2023-09-04T10:14:32.555Z,22.95
2023-09-04T10:17:33.833Z,22.80
2023-09-04T10:20:22.102Z,24.67
2023-09-04T10:23:11.175Z,25.35
2023-09-04T10:26:08.777Z,25.52
2023-09-04T10:29:15.509Z,24.25
2023-09-04T10:32:02.758Z,23.17
2023-09-04T10:34:51.150Z,21.63
2023-09-04T10:37:38.862Z,22.95
2023-09-04T10:40:25.049Z,22.00
2023-09-04T10:43:11.551Z,20.20
2023-09-04T10:46:08.936Z,18.17
2023-09-04T10:48:55.417Z,18.40
2023-09-04T10:51:48.440Z,17.83
2023-09-04T10:54:34.457Z,14.57
2023-09-04T10:57:23.158Z,15.98
2023-09-04T11:00:09.631Z,15.88
2023-09-04T11:02:56.002Z,14.20
2023-09-04T11:06:21.818Z,12.45
2023-09-04T11:09:15.127Z,13.30
2023-09-04T11:14:48.705Z,8.55
2023-09-04T11:17:34.750Z,10.10
2023-09-04T11:20:32.039Z,9.15
2023-09-04T11:23:18.410Z,8.68
2023-09-04T11:26:04.453Z,6.85
2023-09-04T11:28:50.252Z,9.13
2023-09-04T11:31:36.255Z,6.20
2023-09-04T11:34:23.227Z,4.57
2023-09-04T11:37:08.770Z,6.88
2023-09-04T11:40:03.572Z,5.35
2023-09-04T11:42:51.858Z,4.13
2023-09-04T11:45:37.858Z,3.30
2023-09-04T11:48:25.310Z,3.13
2023-09-04T11:51:12.507Z,2.50
2023-09-04T11:53:58.257Z,2.90
2023-09-04T11:56:45.708Z,3.03
2023-09-04T11:59:43.884Z,2.60
2023-09-04T12:02:29.740Z,2.53
2023-09-04T12:05:15.582Z,2.45
2023-09-04T12:08:02.061Z,2.70
2023-09-04T12:10:48.135Z,2.30
2023-09-04T12:13:34.372Z,2.45
2023-09-04T12:16:20.309Z,2.50
2023-09-04T12:19:06.920Z,2.50
2023-09-04T12:21:53.269Z,2.72
2023-09-04T12:24:39.098Z,2.67
2023-09-04T12:27:25.314Z,2.75
2023-09-04T12:30:12.432Z,2.92
2023-09-04T12:32:59.274Z,2.63
2023-09-04T12:35:54.550Z,2.45
2023-09-04T12:38:40.761Z,2.33
2023-09-04T12:41:26.523Z,2.42
2023-09-04T12:44:13.461Z,2.50
2023-09-04T12:46:59.396Z,2.63
2023-09-04T12:49:47.018Z,2.80
2023-09-04T12:52:33.203Z,2.95
2023-09-04T12:55:19.187Z,2.80
2023-09-04T12:58:10.210Z,2.78
2023-09-04T13:00:56.562Z,2.85
2023-09-04T13:03:42.719Z,2.90
2023-09-04T13:06:31.611Z,2.40
2023-09-04T13:09:17.432Z,2.50
2023-09-04T13:12:04.511Z,2.33
2023-09-04T13:14:50.488Z,2.47
2023-09-04T13:17:36.974Z,2.20
2023-09-04T13:20:23.187Z,2.30
2023-09-04T13:23:09.013Z,2.25
2023-09-04T13:25:55.132Z,2.20
2023-09-04T13:28:40.794Z,2.95
2023-09-04T13:31:26.682Z,2.42
2023-09-04T13:34:12.525Z,2.28
2023-09-04T13:36:58.200Z,3.75
2023-09-04T13:39:44.614Z,2.17
2023-09-04T13:42:30.409Z,2.40
2023-09-04T13:45:16.360Z,2.45
2023-09-04T13:48:02.706Z,1.90
2023-09-04T13:50:49.118Z,2.20
2023-09-04T13:53:35.024Z,2.20
2023-09-04T13:56:20.771Z,2.40
2023-09-04T13:59:08.744Z,2.30
2023-09-04T14:01:54.538Z,2.35
2023-09-04T14:04:40.580Z,2.00
2023-09-04T14:07:26.354Z,2.03
2023-09-04T14:10:12.584Z,2.28
2023-09-04T14:12:58.681Z,2.20
2023-09-04T14:15:44.546Z,2.30
2023-09-04T14:18:30.499Z,2.08
2023-09-04T14:21:16.225Z,2.83
2023-09-04T14:24:01.980Z,2.08
2023-09-04T14:26:48.123Z,2.25
2023-09-04T14:29:34.077Z,2.10
2023-09-04T14:32:19.924Z,2.03
2023-09-04T14:35:06.301Z,2.00
2023-09-04T14:37:52.298Z,2.03
2023-09-04T14:40:45.548Z,2.38
2023-09-04T14:43:31.143Z,2.20
2023-09-04T14:46:20.949Z,1.90
2023-09-04T14:49:07.799Z,2.13
2023-09-04T14:51:54.135Z,2.55
2023-09-04T14:54:39.846Z,2.63
2023-09-04T14:57:25.555Z,2.35
2023-09-04T15:00:11.499Z,1.77
2023-09-04T15:02:57.467Z,2.20
2023-09-04T15:05:45.162Z,2.30
2023-09-04T15:08:32.265Z,2.20
2023-09-04T15:11:18.845Z,1.90
2023-09-04T15:14:05.930Z,2.00
2023-09-04T15:16:51.998Z,2.05
2023-09-04T15:19:38.047Z,1.98
2023-09-04T15:22:23.934Z,2.20
2023-09-04T15:25:10.028Z,2.05
2023-09-04T15:27:55.790Z,1.85
2023-09-04T15:30:41.652Z,2.00
2023-09-04T15:33:28.636Z,2.17
2023-09-04T15:36:15.066Z,2.17
2023-09-04T15:39:00.663Z,2.03
2023-09-04T15:41:46.554Z,2.28
2023-09-04T15:44:35.763Z,2.45
2023-09-04T15:47:21.470Z,1.80
2023-09-04T15:50:08.354Z,2.25
2023-09-04T15:52:54.317Z,2.05
2023-09-04T15:55:40.171Z,2.15
2023-09-04T15:58:27.057Z,2.22
2023-09-04T16:01:12.901Z,2.38
2023-09-04T16:03:58.708Z,2.50
2023-09-04T16:06:44.516Z,2.38
2023-09-04T16:09:30.308Z,2.40
2023-09-04T16:12:18.119Z,2.00
2023-09-04T16:15:04.691Z,2.30
2023-09-04T16:17:50.367Z,2.25
2023-09-04T16:20:44.281Z,1.90
2023-09-04T16:23:30.414Z,2.10
2023-09-04T16:26:17.635Z,2.50
2023-09-04T16:29:03.900Z,2.30
2023-09-04T16:31:49.645Z,2.45
2023-09-04T16:34:37.225Z,2.30
2023-09-04T16:37:23.154Z,2.38
2023-09-04T16:40:13.229Z,2.30
2023-09-04T16:42:59.156Z,2.30
2023-09-04T16:45:47.634Z,2.20
2023-09-04T16:48:33.589Z,2.42
2023-09-04T16:51:19.502Z,2.00
2023-09-04T16:54:05.450Z,2.50
2023-09-04T16:56:51.527Z,2.17
2023-09-04T16:59:40.091Z,2.30
2023-09-04T17:02:26.962Z,2.20
2023-09-04T17:05:13.224Z,2.17
2023-09-04T17:07:59.035Z,2.33
2023-09-04T17:10:45.385Z,2.20
2023-09-04T17:13:32.260Z,2.15
2023-09-04T17:16:18.640Z,2.00
2023-09-04T17:19:04.544Z,2.22
2023-09-04T17:21:50.535Z,2.45
2023-09-04T17:24:36.587Z,2.00
2023-09-04T17:27:22.608Z,2.83
2023-09-04T17:30:09.665Z,2.10
2023-09-04T17:32:56.332Z,1.85
2023-09-04T17:35:44.176Z,2.47
2023-09-04T17:38:34.644Z,2.55
2023-09-04T17:41:21.093Z,2.38
2023-09-04T17:44:07.162Z,2.05
2023-09-04T17:46:53.173Z,2.67
2023-09-04T17:49:39.478Z,2.40
2023-09-04T17:52:25.675Z,2.85
2023-09-04T17:55:11.426Z,2.40
2023-09-04T17:57:57.224Z,2.60
2023-09-04T18:00:43.281Z,2.60
2023-09-04T18:03:28.788Z,2.83
2023-09-04T18:06:14.503Z,2.58
2023-09-04T18:09:00.176Z,2.60
2023-09-04T18:11:46.813Z,2.60
2023-09-04T18:14:32.368Z,2.42
2023-09-04T18:17:18.255Z,2.75
2023-09-04T18:20:04.707Z,2.47
2023-09-04T18:22:50.532Z,2.72
2023-09-04T18:25:36.794Z,2.50
2023-09-04T18:28:23.098Z,2.40
2023-09-04T18:31:24.438Z,2.40
2023-09-04T18:34:10.652Z,3.10
2023-09-04T18:36:56.585Z,2.65
2023-09-04T18:39:42.589Z,3.08
2023-09-04T18:42:28.689Z,3.00
2023-09-04T18:45:14.850Z,3.00
2023-09-04T18:48:01.114Z,2.50
2023-09-04T18:50:51.376Z,2.40
2023-09-04T18:53:38.535Z,2.70
2023-09-04T18:56:24.218Z,2.67
2023-09-04T18:59:10.061Z,2.85
2023-09-04T19:01:56.463Z,2.35
2023-09-04T19:04:43.111Z,2.58
2023-09-04T19:07:29.053Z,2.40
2023-09-04T19:10:15.048Z,2.88
2023-09-04T19:13:01.800Z,2.47
2023-09-04T19:15:48.039Z,2.40
2023-09-04T19:18:34.464Z,2.65
2023-09-04T19:21:23.508Z,2.60
2023-09-04T19:24:09.676Z,2.40
2023-09-04T19:26:56.856Z,2.70
2023-09-04T19:29:42.923Z,2.63
2023-09-04T19:32:29.202Z,3.03
2023-09-04T19:35:15.109Z,3.22
2023-09-04T19:38:00.837Z,2.40
2023-09-04T19:40:46.699Z,2.45
2023-09-04T19:43:32.720Z,2.95
2023-09-04T19:46:19.060Z,2.60
2023-09-04T19:49:06.246Z,2.65
2023-09-04T19:51:52.734Z,2.40
2023-09-04T19:54:38.868Z,2.75
2023-09-04T19:57:24.771Z,2.90
2023-09-04T20:00:12.278Z,2.70
2023-09-04T20:02:59.695Z,2.80
2023-09-04T20:05:46.337Z,2.83
2023-09-04T20:08:32.334Z,2.40
2023-09-04T20:11:18.336Z,2.60
2023-09-04T20:14:06.433Z,3.00
2023-09-04T20:16:53.180Z,2.72
2023-09-04T20:19:38.895Z,2.80
2023-09-04T20:22:25.785Z,2.22
2023-09-04T20:25:15.080Z,2.25
2023-09-04T20:28:01.983Z,2.33
2023-09-04T20:30:52.199Z,2.90
2023-09-04T20:33:40.381Z,2.50
2023-09-04T20:36:26.523Z,2.58
2023-09-04T20:39:12.604Z,2.75
2023-09-04T20:41:59.412Z,2.50
2023-09-04T20:44:45.719Z,3.00
2023-09-04T20:47:35.464Z,2.70
2023-09-04T20:50:21.518Z,2.47
2023-09-04T20:53:08.062Z,2.85
2023-09-04T20:55:54.208Z,2.60
2023-09-04T20:58:41.690Z,2.65
2023-09-04T21:01:27.629Z,2.45
2023-09-04T21:04:13.634Z,2.67
2023-09-04T21:07:08.586Z,2.75
2023-09-04T21:09:54.323Z,3.30
2023-09-04T21:12:58.346Z,2.65
2023-09-04T21:16:02.903Z,3.08
2023-09-04T21:19:06.992Z,2.40
2023-09-04T21:22:11.554Z,2.42
2023-09-04T21:25:15.659Z,2.78
2023-09-04T21:28:20.388Z,3.03
2023-09-04T21:31:24.483Z,3.00
2023-09-04T21:34:29.009Z,3.42
2023-09-04T21:37:33.395Z,3.10
2023-09-04T21:40:37.763Z,2.97
2023-09-04T21:43:41.939Z,2.90
2023-09-04T21:46:46.422Z,3.95
2023-09-04T21:49:50.619Z,3.65
2023-09-04T21:52:55.000Z,3.85
2023-09-04T21:55:59.182Z,3.42
2023-09-04T21:59:03.341Z,3.97
2023-09-04T22:02:08.017Z,3.72
2023-09-04T22:05:11.960Z,3.55
2023-09-04T22:08:16.231Z,3.75
2023-09-04T22:11:20.467Z,3.00
2023-09-04T22:14:24.739Z,3.15
2023-09-04T22:17:29.029Z,3.22
2023-09-04T22:20:33.568Z,2.88
2023-09-04T22:23:38.238Z,3.20
2023-09-04T22:26:42.334Z,3.50
2023-09-04T22:29:46.722Z,3.88
2023-09-04T22:32:51.393Z,3.88
2023-09-04T22:35:55.918Z,3.90
2023-09-04T22:39:00.351Z,3.67
2023-09-04T22:42:04.780Z,3.28
2023-09-04T22:45:09.077Z,3.83
2023-09-04T22:48:13.737Z,4.50
2023-09-04T22:51:17.840Z,5.20
2023-09-04T22:54:24.786Z,4.88
2023-09-04T22:57:29.103Z,4.25
2023-09-04T23:00:33.369Z,4.82
2023-09-04T23:03:37.734Z,4.93
2023-09-04T23:06:41.986Z,5.10
2023-09-04T23:09:46.353Z,5.13
2023-09-04T23:12:51.330Z,5.93
2023-09-04T23:15:55.382Z,5.43
2023-09-04T23:18:59.957Z,4.80
2023-09-04T23:21:48.187Z,5.60
2023-09-04T23:24:35.323Z,4.43
2023-09-04T23:27:24.666Z,4.65
2023-09-04T23:30:11.082Z,4.45
2023-09-04T23:33:03.238Z,4.70
2023-09-04T23:36:16.875Z,4.32
2023-09-04T23:39:29.903Z,4.28
2023-09-04T23:42:33.961Z,4.18
2023-09-04T23:45:20.543Z,5.03
2023-09-04T23:48:06.787Z,4.38
2023-09-04T23:50:55.671Z,4.10
2023-09-04T23:53:43.166Z,4.60
2023-09-04T23:56:28.745Z,4.38
2023-09-04T23:59:14.674Z,4.80
